Time;durP1;ratioP1;P1;durP2;ratioP2;P2;SDS_P1;SDS_P2;PMS_P1;PMS_P2;Temp;Humidity;BMP_temperature;BMP_pressure;BME280_temperature;BME280_humidity;BME280_pressure;Samples;Min_cycle;Max_cycle;Signal;HPM_P1;HPM_P2
2023/05/23 00:01:08;;;;;;;;;21.75;15.50;;;;;21.74;46.39;101378.75;5069385;27;45480;-71
2023/05/23 00:03:33;;;;;;;;;17.75;15.00;;;;;21.74;46.13;101381.41;5074587;28;45239;-71
2023/05/23 00:06:00;;;;;;;;;18.00;14.25;;;;;21.75;46.00;101385.81;5069226;27;45641;-71
2023/05/23 00:08:25;;;;;;;;;16.50;14.00;;;;;21.73;46.13;101387.72;5067135;27;46149;-71
2023/05/23 00:10:50;;;;;;;;;15.25;13.25;;;;;21.72;45.85;101378.00;5065681;28;45379;-71
2023/05/23 00:13:16;;;;;;;;;15.00;13.75;;;;;21.73;46.36;101382.41;5070533;28;68036;-71
2023/05/23 00:15:42;;;;;;;;;18.25;16.25;;;;;21.71;46.38;101377.16;5062481;27;48028;-71
2023/05/23 00:18:07;;;;;;;;;22.25;16.50;;;;;21.74;46.20;101389.41;5066356;27;45716;-71
2023/05/23 00:20:35;;;;;;;;;13.25;12.50;;;;;21.73;46.30;101379.72;5070728;27;45493;-71
2023/05/23 00:23:02;;;;;;;;;18.25;13.25;;;;;21.72;45.96;101380.69;5060632;28;45483;-71
2023/05/23 00:25:32;;;;;;;;;18.00;13.00;;;;;21.71;46.03;101377.16;5072582;27;46265;-71
2023/05/23 00:28:04;;;;;;;;;22.00;14.00;;;;;21.69;46.45;101376.41;5069762;28;45355;-71
2023/05/23 00:30:30;;;;;;;;;20.75;12.50;;;;;21.71;46.26;101378.94;5070783;27;45537;-71
2023/05/23 00:32:56;;;;;;;;;18.50;14.25;;;;;21.71;46.41;101376.28;5063889;28;45284;-71
2023/05/23 00:35:22;;;;;;;;;15.00;13.25;;;;;21.70;46.43;101385.25;5075806;27;46166;-71
2023/05/23 00:37:50;;;;;;;;;18.75;14.00;;;;;21.69;45.95;101381.75;5066728;28;45407;-71
2023/05/23 00:40:16;;;;;;;;;16.75;14.75;;;;;21.69;46.01;101380.84;5079967;27;45569;-71
2023/05/23 00:42:41;;;;;;;;;18.25;14.00;;;;;21.68;46.34;101384.50;5068735;27;45474;-71
2023/05/23 00:45:07;;;;;;;;;16.25;13.25;;;;;21.68;46.34;101381.84;5072785;27;45504;-71
2023/05/23 00:47:32;;;;;;;;;13.50;11.50;;;;;21.67;45.81;101382.78;5068752;28;45358;-71
2023/05/23 00:49:59;;;;;;;;;15.75;12.25;;;;;21.67;46.19;101386.28;5066410;27;45504;-71
2023/05/23 00:52:25;;;;;;;;;16.75;15.25;;;;;21.67;45.99;101386.28;5056253;28;45410;-71
2023/05/23 00:54:50;;;;;;;;;13.25;11.00;;;;;21.66;46.20;101370.41;5051650;28;71685;-71
2023/05/23 00:57:16;;;;;;;;;13.50;11.50;;;;;21.66;46.12;101373.94;5062807;28;68295;-71
2023/05/23 00:59:42;;;;;;;;;16.00;13.25;;;;;21.66;45.75;101373.09;5059614;28;49736;-71
2023/05/23 01:02:07;;;;;;;;;16.25;12.75;;;;;21.66;46.17;101373.94;5067508;28;69258;-71
2023/05/23 01:04:34;;;;;;;;;16.50;13.75;;;;;21.65;46.10;101371.34;5081441;27;45989;-71
2023/05/23 01:07:00;;;;;;;;;15.25;13.00;;;;;21.66;45.64;101367.75;5068865;28;45458;-71
2023/05/23 01:09:27;;;;;;;;;19.25;14.75;;;;;21.64;46.01;101362.53;5062402;28;50791;-71
2023/05/23 01:12:14;;;;;;;;;13.75;12.25;;;;;21.65;46.08;101360.72;5066987;28;45251;-71
2023/05/23 01:15:10;;;;;;;;;17.75;12.75;;;;;21.65;45.74;101374.88;5076343;28;45559;-71
2023/05/23 01:17:35;;;;;;;;;16.75;13.25;;;;;21.64;46.19;101372.31;5064601;27;45510;-69
2023/05/23 01:20:09;;;;;;;;;15.67;13.00;;;;;21.60;46.14;101372.53;5076345;27;45359;-69
2023/05/23 01:22:59;;;;;;;;;17.25;14.50;;;;;21.63;45.64;101373.28;5065400;27;45553;-69
2023/05/23 01:25:37;;;;;;;;;16.25;12.50;;;;;21.62;46.00;101380.41;5073100;27;46802;-69
2023/05/23 01:28:04;;;;;;;;;18.00;14.00;;;;;21.60;45.88;101372.53;5076599;28;45757;-69
2023/05/23 01:30:35;;;;;;;;;17.50;10.50;;;;;21.60;45.70;101374.31;5073492;27;45505;-69
2023/05/23 01:33:01;;;;;;;;;15.50;12.75;;;;;21.59;45.55;101377.94;5076470;27;45423;-69
2023/05/23 01:35:27;;;;;;;;;18.25;13.50;;;;;21.59;45.76;101384.13;5073218;27;45285;-71
2023/05/23 01:37:53;;;;;;;;;21.50;14.50;;;;;21.59;45.52;101389.44;5069117;27;45508;-71
2023/05/23 01:40:19;;;;;;;;;19.00;14.50;;;;;21.59;45.60;101392.09;5072991;28;45481;-71
2023/05/23 01:42:44;;;;;;;;;19.25;14.00;;;;;21.58;45.62;101389.53;5054155;27;45512;-71
2023/05/23 01:45:10;;;;;;;;;20.00;15.25;;;;;21.58;45.71;101379.75;5076461;27;46196;-71
2023/05/23 01:47:37;;;;;;;;;19.50;14.25;;;;;21.57;45.58;101385.19;5068502;27;49491;-71
2023/05/23 01:50:02;;;;;;;;;17.00;12.00;;;;;21.58;46.14;101386.88;5076359;27;45379;-72
2023/05/23 01:52:28;;;;;;;;;16.75;13.25;;;;;21.58;45.71;101392.19;5069929;27;45343;-71
2023/05/23 01:54:55;;;;;;;;;15.75;13.00;;;;;21.58;45.87;101389.53;5063955;27;73560;-71
2023/05/23 01:57:21;;;;;;;;;13.75;12.00;;;;;21.56;46.00;101388.78;5069002;27;45837;-71
2023/05/23 01:59:46;;;;;;;;;13.50;11.25;;;;;21.57;45.65;101395.81;5067475;27;45383;-71
2023/05/23 02:02:12;;;;;;;;;18.50;14.25;;;;;21.56;45.36;101389.63;5068119;27;45774;-71
2023/05/23 02:04:37;;;;;;;;;14.00;12.00;;;;;21.56;45.50;101386.13;5062067;28;47947;-71
2023/05/23 02:07:02;;;;;;;;;16.50;12.75;;;;;21.57;45.83;101390.50;5061726;27;45291;-71
2023/05/23 02:09:28;;;;;;;;;13.25;12.25;;;;;21.56;45.48;101391.44;5069943;27;45362;-71
2023/05/23 02:11:53;;;;;;;;;13.25;11.25;;;;;21.55;45.87;101385.28;5055469;28;70183;-71
2023/05/23 02:14:20;;;;;;;;;15.50;14.00;;;;;21.56;45.87;101396.78;5073056;28;45622;-71
2023/05/23 02:16:45;;;;;;;;;13.75;13.50;;;;;21.53;45.49;101392.50;5073130;28;45411;-72
2023/05/23 02:19:10;;;;;;;;;15.00;14.50;;;;;21.55;45.27;101403.91;5072789;27;45368;-71
2023/05/23 02:21:36;;;;;;;;;16.75;13.50;;;;;21.55;45.77;101395.06;5061166;28;68535;-71
2023/05/23 02:24:02;;;;;;;;;15.75;13.00;;;;;21.54;45.46;101394.19;5060564;28;45410;-71
2023/05/23 02:26:27;;;;;;;;;16.00;14.00;;;;;21.52;45.46;101388.13;5049872;28;45405;-71
2023/05/23 02:28:53;;;;;;;;;19.50;14.75;;;;;21.53;45.28;101399.63;5071466;27;45371;-71
2023/05/23 02:31:18;;;;;;;;;14.00;12.00;;;;;21.52;45.75;101396.09;5059636;27;45656;-71
2023/05/23 02:33:43;;;;;;;;;13.75;13.00;;;;;21.52;45.60;101395.25;5070736;28;72637;-71
2023/05/23 02:36:09;;;;;;;;;15.00;13.25;;;;;21.49;45.48;101398.94;5069881;27;45959;-71
2023/05/23 02:38:34;;;;;;;;;13.00;9.50;;;;;21.50;45.80;101403.34;5070812;27;69775;-71
2023/05/23 02:40:59;;;;;;;;;14.25;13.50;;;;;21.51;45.24;101399.72;5060919;28;45311;-71
2023/05/23 02:43:25;;;;;;;;;11.50;10.00;;;;;21.49;45.06;101395.44;5056579;28;47471;-71
2023/05/23 02:45:50;;;;;;;;;8.25;6.75;;;;;21.51;45.30;101398.84;5068241;27;45389;-71
2023/05/23 02:48:16;;;;;;;;;12.25;11.00;;;;;21.50;45.29;101395.34;5070753;27;62729;-71
2023/05/23 02:50:41;;;;;;;;;15.50;12.75;;;;;21.50;45.65;101391.84;5072967;27;45368;-71
2023/05/23 02:53:07;;;;;;;;;14.00;13.00;;;;;21.50;45.65;101391.84;5067042;27;45227;-71
2023/05/23 02:55:32;;;;;;;;;16.75;14.25;;;;;21.49;45.30;101398.94;5066426;28;45373;-71
2023/05/23 02:57:57;;;;;;;;;13.50;12.50;;;;;21.49;45.15;101404.28;5065513;27;51510;-71
2023/05/23 03:00:23;;;;;;;;;15.50;11.75;;;;;21.48;45.53;101399.03;5069042;28;45285;-71
2023/05/23 03:02:49;;;;;;;;;14.50;13.25;;;;;21.49;45.56;101406.94;5068121;27;45398;-71
2023/05/23 03:05:15;;;;;;;;;16.25;12.00;;;;;21.50;45.39;101410.47;5062499;27;45506;-71
2023/05/23 03:07:40;;;;;;;;;15.00;12.50;;;;;21.47;45.58;101402.69;5060624;27;45390;-71
2023/05/23 03:10:06;;;;;;;;;17.00;13.50;;;;;21.47;45.10;101402.69;5062125;28;67633;-71
2023/05/23 03:12:31;;;;;;;;;22.25;14.00;;;;;21.47;45.35;101410.66;5068601;28;45319;-69
2023/05/23 03:14:57;;;;;;;;;20.50;13.50;;;;;21.45;45.55;101400.06;5067614;28;70341;-69
2023/05/23 03:17:24;;;;;;;;;15.25;13.00;;;;;21.47;45.46;101408.84;5077987;27;45336;-69
2023/05/23 03:19:49;;;;;;;;;18.25;14.25;;;;;21.44;45.58;101401.00;5074449;27;45228;-69
2023/05/23 03:22:15;;;;;;;;;14.75;12.50;;;;;21.46;45.16;101411.59;5062285;27;54651;-69
2023/05/23 03:24:40;;;;;;;;;23.75;15.25;;;;;21.44;45.47;101406.34;5067974;28;45303;-69
2023/05/23 03:27:05;;;;;;;;;15.00;12.75;;;;;21.43;45.21;101396.66;5063276;27;45183;-69
2023/05/23 03:29:31;;;;;;;;;17.00;13.25;;;;;21.39;45.52;101401.31;5069690;28;63877;-69
2023/05/23 03:31:57;;;;;;;;;15.50;13.00;;;;;21.41;45.36;101412.72;5058085;28;45532;-71
2023/05/23 03:34:22;;;;;;;;;14.25;13.00;;;;;21.42;44.98;101424.22;5068543;28;45376;-71
2023/05/23 03:36:48;;;;;;;;;13.50;12.50;;;;;21.42;45.68;101421.56;5072037;27;45498;-71
2023/05/23 03:39:13;;;;;;;;;17.00;12.25;;;;;21.42;45.34;101427.75;5077097;27;45831;-71
2023/05/23 03:41:38;;;;;;;;;16.25;13.50;;;;;21.42;45.05;101427.75;5074722;27;68513;-71
2023/05/23 03:44:04;;;;;;;;;16.50;13.00;;;;;21.41;45.07;101431.38;5067829;28;74231;-71
2023/05/23 03:46:29;;;;;;;;;14.50;12.00;;;;;21.41;45.20;101427.84;5071157;28;45461;-71
2023/05/23 03:48:55;;;;;;;;;16.00;12.75;;;;;21.38;45.00;101426.22;5060536;28;61049;-71
2023/05/23 03:51:20;;;;;;;;;17.50;13.75;;;;;21.39;45.43;101432.41;5071613;27;46859;-71
2023/05/23 03:53:46;;;;;;;;;18.25;14.25;;;;;21.38;45.07;101430.69;5067515;27;45561;-71
2023/05/23 03:56:11;;;;;;;;;20.50;16.00;;;;;21.39;45.30;101429.75;5060931;27;61315;-71
2023/05/23 03:58:36;;;;;;;;;16.25;13.50;;;;;21.39;45.06;101429.75;5061431;28;69979;-71
2023/05/23 04:01:02;;;;;;;;;18.25;14.00;;;;;21.37;45.30;101434.28;5065959;27;45477;-71
2023/05/23 04:03:31;;;;;;;;;16.00;14.25;;;;;21.37;45.09;101435.19;5061100;27;45384;-71
2023/05/23 04:05:57;;;;;;;;;15.25;12.00;;;;;21.37;45.63;101436.97;5066391;28;46109;-71
2023/05/23 04:08:23;;;;;;;;;16.25;13.00;;;;;21.34;45.15;101429.19;5065311;28;45339;-71
2023/05/23 04:10:48;;;;;;;;;19.00;14.00;;;;;21.35;44.94;101434.38;5068388;27;46100;-71
2023/05/23 04:13:14;;;;;;;;;16.25;10.75;;;;;21.36;45.32;101440.59;5061758;28;45248;-71
2023/05/23 04:15:39;;;;;;;;;22.50;16.50;;;;;21.35;45.03;101441.53;5064553;28;45512;-71
2023/05/23 04:18:06;;;;;;;;;19.75;16.75;;;;;21.34;45.23;101440.69;5074031;28;45712;-71
2023/05/23 04:20:32;;;;;;;;;13.75;13.75;;;;;21.34;45.14;101451.31;5069098;27;46292;-71
2023/05/23 04:22:57;;;;;;;;;14.50;12.75;;;;;21.34;45.10;101453.16;5062635;27;45349;-71
2023/05/23 04:25:23;;;;;;;;;17.75;14.75;;;;;21.34;45.43;101451.31;5065846;27;47006;-71
2023/05/23 04:27:48;;;;;;;;;21.25;15.75;;;;;21.34;45.10;101439.84;5067891;28;45473;-72
2023/05/23 04:30:15;;;;;;;;;17.00;13.25;;;;;21.31;45.06;101443.53;5070385;27;45347;-71
2023/05/23 04:32:41;;;;;;;;;15.00;12.00;;;;;21.33;44.94;101440.75;5064261;28;45699;-72
2023/05/23 04:35:06;;;;;;;;;15.25;13.75;;;;;21.32;45.03;101447.03;5064252;27;64045;-71
2023/05/23 04:37:31;;;;;;;;;13.75;11.25;;;;;21.32;44.97;101450.56;5064481;28;45510;-72
2023/05/23 04:39:58;;;;;;;;;16.50;13.00;;;;;21.32;45.37;101455.91;5062308;27;45510;-71
2023/05/23 04:42:24;;;;;;;;;18.25;12.00;;;;;21.31;45.27;101453.31;5066805;28;45826;-71
2023/05/23 04:44:51;;;;;;;;;15.75;14.50;;;;;21.32;45.03;101457.69;5087080;27;45359;-71
2023/05/23 04:47:17;;;;;;;;;15.50;13.75;;;;;21.33;44.90;101467.38;5073541;27;45413;-71
2023/05/23 04:49:43;;;;;;;;;15.50;14.50;;;;;21.32;45.08;101465.66;5059243;28;47445;-71
2023/05/23 04:52:09;;;;;;;;;15.25;11.50;;;;;21.31;44.89;101464.81;5076004;27;45276;-71
2023/05/23 04:54:36;;;;;;;;;15.25;13.00;;;;;21.30;45.23;101463.13;5069129;27;45247;-70
2023/05/23 04:57:01;;;;;;;;;12.75;9.75;;;;;21.31;45.31;101463.97;5086701;27;45447;-69
2023/05/23 04:59:27;;;;;;;;;18.25;12.50;;;;;21.30;45.34;101449.81;5071809;28;48113;-69
2023/05/23 05:01:52;;;;;;;;;14.50;11.50;;;;;21.31;45.17;101456.84;5064932;28;46068;-69
2023/05/23 05:04:17;;;;;;;;;17.25;12.75;;;;;21.30;45.05;101459.59;5061237;28;61220;-69
2023/05/23 05:06:43;;;;;;;;;14.75;12.50;;;;;21.29;45.38;101460.56;5067222;27;45185;-69
2023/05/23 05:09:08;;;;;;;;;15.25;10.25;;;;;21.30;45.14;101467.56;5065569;28;46493;-69
2023/05/23 05:11:33;;;;;;;;;14.50;11.00;;;;;21.29;44.88;101474.72;5064382;28;45377;-69
2023/05/23 05:13:59;;;;;;;;;11.75;11.50;;;;;21.29;44.91;101474.72;5064605;28;66101;-69
2023/05/23 05:16:25;;;;;;;;;13.50;13.00;;;;;21.27;44.92;101457.97;5079617;27;45708;-70
2023/05/23 05:18:50;;;;;;;;;11.25;9.75;;;;;21.29;44.93;101476.53;5074814;27;46242;-70
2023/05/23 05:21:15;;;;;;;;;11.00;11.00;;;;;21.30;44.88;101481.75;5072098;27;45446;-69
2023/05/23 05:23:41;;;;;;;;;12.25;11.50;;;;;21.28;45.14;101478.31;5071137;28;47787;-70
2023/05/23 05:26:07;;;;;;;;;12.00;11.50;;;;;21.28;45.40;101477.47;5064527;27;63105;-69
2023/05/23 05:28:32;;;;;;;;;10.00;9.25;;;;;21.28;44.87;101478.31;5064110;28;45677;-69
2023/05/23 05:30:57;;;;;;;;;11.00;9.75;;;;;21.28;45.44;101475.66;5065314;27;45441;-69
2023/05/23 05:33:23;;;;;;;;;12.25;10.50;;;;;21.28;45.28;101475.66;5057526;28;53818;-69
2023/05/23 05:35:52;;;;;;;;;13.50;10.50;;;;;21.27;45.07;101473.94;5064807;27;45378;-69
2023/05/23 05:38:18;;;;;;;;;12.25;9.50;;;;;21.28;44.87;101478.31;5073960;27;45747;-69
2023/05/23 05:40:43;;;;;;;;;13.25;10.00;;;;;21.28;45.35;101480.97;5082023;27;45301;-69
2023/05/23 05:43:09;;;;;;;;;10.75;8.75;;;;;21.26;45.50;101477.56;5063063;27;62655;-69
2023/05/23 05:45:35;;;;;;;;;10.25;10.00;;;;;21.28;45.54;101488.97;5067624;28;46112;-69
2023/05/23 05:48:00;;;;;;;;;11.75;8.25;;;;;21.28;45.30;101486.28;5069905;28;45372;-69
2023/05/23 05:50:25;;;;;;;;;10.75;9.00;;;;;21.27;45.02;101475.75;5068520;27;45418;-69
2023/05/23 05:52:51;;;;;;;;;11.25;8.25;;;;;21.27;45.34;101481.09;5072747;27;45398;-69
2023/05/23 05:55:16;;;;;;;;;10.75;8.25;;;;;21.27;45.26;101487.25;5067664;27;45531;-69
2023/05/23 05:57:41;;;;;;;;;14.25;9.75;;;;;21.22;45.34;101487.53;5071671;28;48007;-72
2023/05/23 06:00:13;;;;;;;;;10.25;10.00;;;;;21.28;45.41;101496.09;5065175;28;54448;-70
2023/05/23 06:02:40;;;;;;;;;11.00;10.00;;;;;21.26;44.89;101498.00;5067701;28;45651;-69
2023/05/23 06:05:06;;;;;;;;;9.75;9.00;;;;;21.24;44.96;101488.28;5063943;28;45556;-74
2023/05/23 06:07:33;;;;;;;;;9.25;8.50;;;;;21.25;44.83;101497.16;5075048;28;46367;-75
2023/05/23 06:09:58;;;;;;;;;10.00;8.50;;;;;21.24;44.93;101490.94;5068090;28;45513;-72
2023/05/23 06:12:24;;;;;;;;;10.50;9.00;;;;;21.23;45.24;101499.91;5062561;28;67502;-72
2023/05/23 06:14:49;;;;;;;;;9.25;8.75;;;;;21.22;45.12;101492.84;5065258;28;45442;-71
2023/05/23 06:17:15;;;;;;;;;8.00;7.00;;;;;21.21;44.82;101501.81;5074444;27;74141;-72
2023/05/23 06:19:40;;;;;;;;;11.25;9.00;;;;;21.19;45.20;101495.69;5064915;28;45407;-71
2023/05/23 06:22:05;;;;;;;;;9.25;8.00;;;;;21.21;45.18;101499.13;5068362;28;45417;-71
2023/05/23 06:24:31;;;;;;;;;8.00;7.75;;;;;21.19;44.91;101498.34;5065557;28;45663;-71
2023/05/23 06:26:56;;;;;;;;;10.00;8.75;;;;;21.19;44.90;101502.81;5067868;28;68857;-70
2023/05/23 06:29:21;;;;;;;;;8.75;8.00;;;;;21.19;44.81;101508.16;5070746;28;72609;-71
2023/05/23 06:31:47;;;;;;;;;12.25;8.75;;;;;21.18;44.65;101506.44;5063960;28;67837;-69
2023/05/23 06:34:12;;;;;;;;;9.50;8.50;;;;;21.16;45.14;101501.22;5073171;27;67976;-69
2023/05/23 06:36:37;;;;;;;;;10.50;10.00;;;;;21.15;45.02;101509.28;5055206;28;58844;-71
2023/05/23 06:39:02;;;;;;;;;9.00;8.00;;;;;21.14;44.91;101505.78;5061611;28;71177;-70
2023/05/23 06:41:28;;;;;;;;;11.50;10.25;;;;;21.13;45.29;101512.03;5057803;28;69652;-70
2023/05/23 06:43:53;;;;;;;;;13.00;8.75;;;;;21.11;45.24;101521.91;5064936;28;71398;-70
2023/05/23 06:46:19;;;;;;;;;12.25;9.25;;;;;21.11;44.95;101521.91;5068163;28;45556;-69
2023/05/23 06:48:44;;;;;;;;;13.50;9.75;;;;;21.09;45.20;101515.84;5080389;27;45209;-70
2023/05/23 06:51:10;;;;;;;;;14.00;12.00;;;;;21.07;45.02;101520.41;5078750;27;54917;-69
2023/05/23 06:53:35;;;;;;;;;17.75;15.00;;;;;21.05;45.46;101524.94;5062435;28;45437;-73
2023/05/23 06:56:00;;;;;;;;;19.25;14.75;;;;;21.02;45.31;101515.34;5068771;28;70339;-69
2023/05/23 06:58:26;;;;;;;;;15.75;13.25;;;;;21.04;45.36;101523.22;5060261;28;71174;-74
2023/05/23 07:00:51;;;;;;;;;9.25;7.25;;;;;21.03;45.18;101534.81;5060283;28;59713;-70
2023/05/23 07:03:16;;;;;;;;;10.75;10.75;;;;;21.03;45.38;101529.50;5067552;28;45710;-71
2023/05/23 07:05:42;;;;;;;;;11.75;10.25;;;;;21.03;45.47;101534.81;5066066;28;73218;-70
2023/05/23 07:08:09;;;;;;;;;10.00;9.00;;;;;21.03;44.70;101546.34;5080628;27;56480;-70
2023/05/23 07:10:35;;;;;;;;;9.75;9.75;;;;;21.05;45.40;101544.44;5064824;28;45410;-70
2023/05/23 07:13:00;;;;;;;;;10.25;7.75;;;;;21.04;44.89;101549.84;5065383;28;45235;-70
2023/05/23 07:15:25;;;;;;;;;11.75;10.25;;;;;21.05;44.85;101547.09;5061886;28;50000;-70
2023/05/23 07:17:51;;;;;;;;;13.50;10.25;;;;;21.05;45.43;101549.75;5068735;28;46888;-72
2023/05/23 07:20:16;;;;;;;;;12.25;10.50;;;;;21.07;45.29;101556.78;5054639;28;45514;-71
2023/05/23 07:22:41;;;;;;;;;15.25;11.00;;;;;21.07;45.28;101556.78;5067478;27;65612;-72
2023/05/23 07:25:07;;;;;;;;;12.50;9.25;;;;;21.07;45.46;101549.69;5075880;27;64178;-71
2023/05/23 07:27:33;;;;;;;;;13.25;9.25;;;;;21.07;45.32;101556.78;5074382;27;45332;-70
2023/05/23 07:29:58;;;;;;;;;12.50;10.00;;;;;21.09;45.20;101558.41;5056773;28;45526;-72
2023/05/23 07:32:24;;;;;;;;;12.00;10.25;;;;;21.08;45.35;101562.00;5052474;28;45574;-72
2023/05/23 07:34:49;;;;;;;;;11.50;10.00;;;;;21.09;45.15;101560.19;5063390;28;46842;-72
2023/05/23 07:37:14;;;;;;;;;11.25;9.75;;;;;21.09;45.01;101560.19;5076617;28;68290;-72
2023/05/23 07:39:40;;;;;;;;;10.25;7.50;;;;;21.10;44.96;101570.75;5070136;28;64561;-72
2023/05/23 07:42:05;;;;;;;;;12.00;9.25;;;;;21.11;45.04;101561.84;5071420;28;45555;-73
2023/05/23 07:44:31;;;;;;;;;11.00;9.50;;;;;21.12;45.35;101568.03;5055897;28;46644;-72
2023/05/23 07:46:56;;;;;;;;;13.75;10.00;;;;;21.12;45.11;101566.19;5067893;28;45564;-73
2023/05/23 07:49:22;;;;;;;;;11.50;9.00;;;;;21.13;45.08;101570.59;5068461;28;45414;-76
2023/05/23 07:51:47;;;;;;;;;9.25;6.75;;;;;21.12;45.56;101568.03;5066824;28;56687;-76
2023/05/23 07:54:12;;;;;;;;;11.50;10.50;;;;;21.13;45.63;101575.06;5078604;27;66021;-70
2023/05/23 07:56:38;;;;;;;;;10.00;9.00;;;;;21.14;45.33;101577.66;5071766;28;69793;-72
2023/05/23 07:59:04;;;;;;;;;11.25;9.75;;;;;21.15;45.62;101586.47;5084568;27;45469;-71
2023/05/23 08:01:30;;;;;;;;;12.25;11.75;;;;;21.15;45.49;101574.03;5073386;28;45478;-72
2023/05/23 08:03:55;;;;;;;;;10.50;9.25;;;;;21.17;45.27;101582.78;5068360;27;47209;-71
2023/05/23 08:06:20;;;;;;;;;12.75;9.75;;;;;21.16;45.47;101583.72;5056811;28;45345;-70
2023/05/23 08:08:46;;;;;;;;;12.00;9.75;;;;;21.17;45.14;101587.25;5088825;27;66495;-71
2023/05/23 08:11:12;;;;;;;;;13.00;9.50;;;;;21.17;45.07;101582.78;5074653;28;45634;-72
2023/05/23 08:13:37;;;;;;;;;8.25;7.75;;;;;21.17;45.55;101590.75;5077836;27;46281;-71
2023/05/23 08:16:02;;;;;;;;;10.00;9.50;;;;;21.17;45.36;101585.44;5065946;28;71969;-72
2023/05/23 08:18:29;;;;;;;;;12.25;8.75;;;;;21.17;45.07;101596.06;5061481;28;51594;-79
2023/05/23 08:20:55;;;;;;;;;10.50;10.00;;;;;21.17;45.07;101596.06;5063818;28;45732;-73
2023/05/23 08:23:20;;;;;;;;;10.25;8.75;;;;;21.18;45.65;101595.16;5074788;27;48412;-72
2023/05/23 08:25:45;;;;;;;;;9.50;9.25;;;;;21.19;45.22;101590.66;5071912;28;47888;-71
2023/05/23 08:28:11;;;;;;;;;10.00;7.00;;;;;21.18;45.33;101592.47;5073376;28;67059;-72
2023/05/23 08:30:36;;;;;;;;;8.75;7.75;;;;;21.20;45.66;101590.59;5047979;28;45499;-72
2023/05/23 08:33:03;;;;;;;;;7.50;7.00;;;;;21.20;45.06;101595.06;5073836;27;45656;-73
2023/05/23 08:35:33;;;;;;;;;9.50;7.50;;;;;21.22;45.28;101601.16;5076911;28;46026;-73
2023/05/23 08:38:00;;;;;;;;;10.00;8.25;;;;;21.21;45.41;101592.31;5085933;27;45425;-72
2023/05/23 08:40:28;;;;;;;;;11.50;8.50;;;;;21.23;45.87;101600.22;5055874;28;47369;-72
2023/05/23 08:42:53;;;;;;;;;10.50;9.00;;;;;21.23;45.21;101602.88;5084822;27;47336;-72
2023/05/23 08:45:18;;;;;;;;;8.00;8.00;;;;;21.23;45.30;101598.41;5071254;28;59117;-72
2023/05/23 08:47:45;;;;;;;;;8.75;8.00;;;;;21.23;45.47;101603.72;5070662;28;49869;-73
2023/05/23 08:50:15;;;;;;;;;9.25;6.50;;;;;21.25;45.54;101603.63;5052482;28;45353;-72
2023/05/23 08:52:54;;;;;;;;;10.50;9.00;;;;;21.24;45.53;101605.41;5068901;27;46551;-72
2023/05/23 08:55:21;;;;;;;;;10.50;8.00;;;;;21.26;45.37;101604.50;5052818;28;45419;-71
2023/05/23 08:57:47;;;;;;;;;7.75;6.75;;;;;21.24;45.47;101602.75;5072710;28;45303;-72
2023/05/23 09:00:15;;;;;;;;;10.75;7.00;;;;;21.26;45.31;101601.81;5064695;28;45537;-72
2023/05/23 09:02:44;;;;;;;;;8.75;7.25;;;;;21.24;45.15;101602.75;5065139;27;45616;-72
2023/05/23 09:05:10;;;;;;;;;8.00;6.50;;;;;21.26;45.08;101602.66;5059387;28;45619;-72
2023/05/23 09:07:36;;;;;;;;;7.25;7.00;;;;;21.28;45.32;101610.56;5076504;28;45633;-71
2023/05/23 09:10:06;;;;;;;;;7.50;7.00;;;;;21.26;45.25;101615.97;5072361;28;45344;-73
2023/05/23 09:12:32;;;;;;;;;10.75;7.00;;;;;21.23;45.11;101602.88;5068828;27;46596;-73
2023/05/23 09:14:58;;;;;;;;;7.00;7.00;;;;;21.27;45.26;101614.19;5073951;28;45429;-72
2023/05/23 09:17:23;;;;;;;;;11.75;8.25;;;;;21.27;45.62;101612.38;5063264;28;71311;-71
2023/05/23 09:19:48;;;;;;;;;8.00;7.25;;;;;21.27;45.47;101615.06;5071737;27;45464;-71
2023/05/23 09:22:14;;;;;;;;;9.00;7.00;;;;;21.28;45.09;101616.75;5067154;27;45422;-72
2023/05/23 09:24:40;;;;;;;;;10.25;8.75;;;;;21.27;45.09;101620.38;5075978;27;45465;-72
2023/05/23 09:27:06;;;;;;;;;8.50;7.00;;;;;21.29;45.59;101614.97;5059571;28;45333;-72
2023/05/23 09:29:31;;;;;;;;;17.00;10.00;;;;;21.28;45.36;101621.22;5071594;28;45449;-71
2023/05/23 09:32:13;;;;;;;;;19.50;11.50;;;;;21.28;45.40;101615.91;5063135;28;71198;-72
2023/05/23 09:34:53;;;;;;;;;23.00;13.50;;;;;21.28;45.25;101622.06;5064454;28;45908;-69
2023/05/23 09:37:18;;;;;;;;;11.25;8.75;;;;;21.28;45.04;101618.56;5071024;28;45425;-70
2023/05/23 09:39:47;;;;;;;;;16.50;13.50;;;;;21.28;45.16;101615.91;5061862;28;61621;-70
2023/05/23 09:42:19;;;;;;;;;26.00;15.00;;;;;21.28;45.63;101615.91;5068354;28;46495;-70
2023/05/23 09:44:44;;;;;;;;;26.00;16.50;;;;;21.27;45.06;101616.88;5071546;28;45469;-69
2023/05/23 09:47:10;;;;;;;;;36.00;15.75;;;;;21.26;45.30;101613.31;5069237;28;66353;-69
2023/05/23 09:49:38;;;;;;;;;34.25;18.00;;;;;21.27;45.09;101614.19;5067824;28;45379;-69
2023/05/23 09:52:03;;;;;;;;;29.25;16.75;;;;;21.25;45.61;101619.63;5048747;28;45891;-68
2023/05/23 09:54:28;;;;;;;;;40.75;16.25;;;;;21.26;45.09;101621.31;5064894;27;46414;-70
2023/05/23 09:56:55;;;;;;;;;54.75;27.75;;;;;21.26;45.56;101629.28;5060086;28;45551;-68
2023/05/23 09:59:23;;;;;;;;;55.25;22.75;;;;;21.23;45.49;101618.84;5073101;28;45317;-69
2023/05/23 10:01:50;;;;;;;;;84.25;45.00;;;;;21.27;45.83;101624.84;5056971;28;45395;-70
2023/05/23 10:04:21;;;;;;;;;77.00;44.00;;;;;21.26;45.26;101623.13;5071357;28;45421;-71
2023/05/23 10:06:52;;;;;;;;;60.50;30.00;;;;;21.26;45.69;101623.97;5054343;28;45486;-70
2023/05/23 10:09:19;;;;;;;;;56.25;30.50;;;;;21.26;45.37;101620.47;5066642;28;45609;-70
2023/05/23 10:12:03;;;;;;;;;61.50;28.25;;;;;21.28;45.55;101621.22;5075737;28;45424;-70
2023/05/23 10:14:31;;;;;;;;;51.75;23.75;;;;;21.28;45.48;101629.22;5072250;27;45409;-70
2023/05/23 10:17:17;;;;;;;;;40.00;23.00;;;;;21.28;45.45;101630.06;5080740;27;45635;-70
2023/05/23 10:19:47;;;;;;;;;45.00;24.00;;;;;21.28;45.72;101630.06;5058830;28;45332;-72
2023/05/23 10:22:15;;;;;;;;;38.50;21.75;;;;;21.29;45.83;101629.13;5065652;28;46317;-70
2023/05/23 10:24:40;;;;;;;;;30.50;18.00;;;;;21.29;45.74;101633.59;5077752;27;45845;-71
2023/05/23 10:27:06;;;;;;;;;33.25;16.75;;;;;21.28;45.52;101631.88;5065859;28;45545;-70
2023/05/23 10:29:35;;;;;;;;;33.00;18.00;;;;;21.29;45.57;101637.13;5065500;28;45250;-70
2023/05/23 10:32:01;;;;;;;;;32.50;18.75;;;;;21.29;45.86;101630.94;5057440;28;47240;-70
2023/05/23 10:34:35;;;;;;;;;33.00;14.50;;;;;21.30;45.78;101632.63;5076940;27;45421;-71
2023/05/23 10:37:07;;;;;;;;;25.50;15.50;;;;;21.30;45.90;101629.97;5060414;28;45436;-71
2023/05/23 10:39:39;;;;;;;;;27.75;13.75;;;;;21.30;45.96;101628.19;5051206;28;45337;-73
2023/05/23 10:42:43;;;;;;;;;24.50;15.00;;;;;21.30;45.38;101633.53;5057030;28;47422;-71
2023/05/23 10:45:17;;;;;;;;;20.75;13.00;;;;;21.30;45.31;101625.53;5005340;28;45512;-70
2023/05/23 10:47:43;;;;;;;;;20.75;15.50;;;;;21.29;45.42;101631.78;5064290;28;45352;-73
2023/05/23 10:50:13;;;;;;;;;21.75;12.25;;;;;21.30;45.28;101625.53;5061800;28;45509;-75
2023/05/23 10:52:40;;;;;;;;;21.25;13.00;;;;;21.28;45.77;101616.75;5060279;27;46398;-76
2023/05/23 10:55:13;;;;;;;;;20.25;11.50;;;;;21.31;45.46;101623.72;5077348;28;46584;-76
2023/05/23 10:57:40;;;;;;;;;19.25;13.50;;;;;21.31;45.21;101618.41;5063695;28;45646;-73
2023/05/23 11:00:14;;;;;;;;;20.75;12.75;;;;;21.28;45.76;101622.06;5072277;28;45458;-71
2023/05/23 11:03:04;;;;;;;;;21.00;11.50;;;;;21.33;45.17;101624.47;5056353;27;46821;-73
2023/05/23 11:05:30;;;;;;;;;18.25;11.75;;;;;21.32;45.44;101625.41;5061443;28;45564;-72
2023/05/23 11:08:09;;;;;;;;;15.75;9.50;;;;;21.32;45.56;101620.09;5064063;28;45350;-70
2023/05/23 11:10:55;;;;;;;;;18.50;11.75;;;;;21.32;45.73;101620.09;5061269;28;45487;-71